This is the latest recevied weather packets stored in our database for station/object IW2HNF-3. If no packets are shown the sender has not sent any weather packets the latest 10 day(s).
| Time | Temp. | Humidity | Pressure | Rain* | Wind** | Luminosity | Snow |
|---|---|---|---|---|---|---|---|
| 1778092259 | 10.56° C | 99% | 1008.9 hPa | 6.6 mm | - | - | - |
| 1778091635 | 10.56° C | 99% | 1008.9 hPa | 4.57 mm | - | - | - |
| 1778091059 | 10.56° C | 99% | 1008 hPa | 0.25 mm | - | - | - |
| 1778090627 | 10.56° C | 99% | 1007.4 hPa | 0 mm | - | - | - |
| 1778089859 | 10.56° C | 99% | 1007.1 hPa | 0 mm | - | - | - |
| 1778089234 | 11.11° C | 99% | 1007 hPa | 0 mm | - | - | - |
| 1778088660 | 11.11° C | 99% | 1006.8 hPa | 0 mm | - | - | - |
| 1778088035 | 11.11° C | 99% | 1006.7 hPa | 0 mm | - | - | - |
| 1778087459 | 11.11° C | 99% | 1006.5 hPa | 0 mm | - | - | - |
| 1778086835 | 11.11° C | 99% | 1006.6 hPa | 0 mm | - | - | - |
| 1778086259 | 11.11° C | 99% | 1006.5 hPa | 0 mm | - | - | - |
| 1778085635 | 11.11° C | 99% | 1006.5 hPa | 0 mm | - | - | - |
| 1778085060 | 11.11° C | 99% | 1006.4 hPa | 0 mm | - | - | - |
| 1778084435 | 11.11° C | 99% | 1005.8 hPa | 0 mm | - | - | - |
| 1778083858 | 11.11° C | 99% | 1005.4 hPa | 0 mm | - | - | - |
| 1778083379 | 11.67° C | 99% | 1005.3 hPa | 0 mm | - | - | - |
| 1778082660 | 11.67° C | 98% | 1005.5 hPa | 2.29 mm | - | - | - |
| 1778082035 | 11.67° C | 98% | 1005.6 hPa | 5.59 mm | - | - | - |
| 1778081461 | 11.67° C | 98% | 1005.9 hPa | 10.92 mm | - | - | - |
| 1778080835 | 11.11° C | 99% | 1005.9 hPa | 17.53 mm | - | - | - |
| 1778080259 | 11.11° C | 99% | 1005.8 hPa | 25.15 mm | - | - | - |
| 1778079636 | 11.11° C | 99% | 1005.8 hPa | 31.5 mm | - | - | - |
| 1778079059 | 10.56° C | 99% | 1006.2 hPa | 48.01 mm | - | - | - |
| 1778078435 | 10° C | 99% | 1006.4 hPa | 74.93 mm | - | - | - |
| 1778077859 | 10° C | 99% | 1006.3 hPa | 87.38 mm | - | - | - |
* Rain latest hour (hover to see other rain measurements)
** Current wind speed in m/s (hover to see current wind gust speed)